createdAt,value
2023-10-30T00:00:13.106Z,97709.61
2023-10-30T00:01:11.090Z,97714.36
2023-10-30T00:02:11.080Z,97714.62
2023-10-30T00:03:11.234Z,97712.90
2023-10-30T00:04:11.159Z,97710.75
2023-10-30T00:05:11.073Z,97711.11
2023-10-30T00:06:11.111Z,97711.99
2023-10-30T00:07:11.076Z,97710.23
2023-10-30T00:08:11.075Z,97709.14
2023-10-30T00:09:11.129Z,97710.77
2023-10-30T00:10:11.082Z,97712.40
2023-10-30T00:11:11.078Z,97712.36
2023-10-30T00:12:11.126Z,97717.35
2023-10-30T00:13:11.077Z,97712.76
2023-10-30T00:14:11.079Z,97711.91
2023-10-30T00:15:11.113Z,97709.62
2023-10-30T00:16:11.078Z,97708.61
2023-10-30T00:17:11.092Z,97706.03
2023-10-30T00:18:11.144Z,97708.57
2023-10-30T00:19:11.089Z,97709.93
2023-10-30T00:20:11.090Z,97711.76
2023-10-30T00:21:13.129Z,97713.32
2023-10-30T00:22:11.090Z,97711.21
2023-10-30T00:23:11.089Z,97710.21
2023-10-30T00:24:11.110Z,97714.04
2023-10-30T00:25:11.085Z,97714.43
2023-10-30T00:26:11.104Z,97716.19
2023-10-30T00:27:11.114Z,97719.37
2023-10-30T00:28:11.089Z,97724.63
2023-10-30T00:29:11.100Z,97727.38
2023-10-30T00:30:11.115Z,97723.75
2023-10-30T00:31:11.100Z,97725.41
2023-10-30T00:32:11.090Z,97728.39
2023-10-30T00:33:11.151Z,97726.95
2023-10-30T00:34:14.084Z,97723.46
2023-10-30T00:35:11.099Z,97726.24
2023-10-30T00:36:11.118Z,97721.00
2023-10-30T00:37:11.118Z,97721.59
2023-10-30T00:38:11.092Z,97721.35
2023-10-30T00:39:11.117Z,97725.90
2023-10-30T00:40:11.090Z,97725.69
2023-10-30T00:41:11.095Z,97725.95
2023-10-30T00:42:11.138Z,97726.33
2023-10-30T00:43:11.092Z,97725.42
2023-10-30T00:44:11.093Z,97728.47
2023-10-30T00:45:11.114Z,97729.89
2023-10-30T00:46:11.121Z,97731.02
2023-10-30T00:47:11.095Z,97732.77
2023-10-30T00:48:11.148Z,97728.37
2023-10-30T00:49:11.095Z,97733.45
2023-10-30T00:50:11.104Z,97737.67
2023-10-30T00:51:11.162Z,97736.86
2023-10-30T00:52:11.098Z,97734.29
2023-10-30T00:53:11.126Z,97733.03
2023-10-30T00:54:11.119Z,97734.18
2023-10-30T00:55:11.104Z,97734.23
2023-10-30T00:56:11.102Z,97734.45
2023-10-30T00:57:11.124Z,97733.84
2023-10-30T00:58:12.104Z,97734.08
2023-10-30T00:59:11.098Z,97737.62
2023-10-30T01:00:11.123Z,97737.82
2023-10-30T01:01:11.103Z,97738.72
2023-10-30T01:02:11.189Z,97744.12
2023-10-30T01:03:11.285Z,97743.58
2023-10-30T01:04:13.361Z,97743.41
2023-10-30T01:05:11.308Z,97743.62
2023-10-30T01:06:11.114Z,97744.90
2023-10-30T01:07:11.112Z,97747.73
2023-10-30T01:08:13.104Z,97747.34
2023-10-30T01:09:11.158Z,97740.91
2023-10-30T01:10:11.107Z,97743.43
2023-10-30T01:11:11.106Z,97747.18
2023-10-30T01:12:11.153Z,97746.47
2023-10-30T01:13:11.112Z,97748.74
2023-10-30T01:14:11.107Z,97747.04
2023-10-30T01:15:11.128Z,97748.21
2023-10-30T01:16:11.158Z,97750.27
2023-10-30T01:17:11.111Z,97753.77
2023-10-30T01:18:11.125Z,97750.56
2023-10-30T01:19:11.112Z,97750.10
2023-10-30T01:20:11.112Z,97745.85
2023-10-30T01:21:14.150Z,97748.14
2023-10-30T01:22:11.111Z,97749.95
2023-10-30T01:23:11.114Z,97748.97
2023-10-30T01:24:11.133Z,97749.77
2023-10-30T01:25:11.114Z,97751.32
2023-10-30T01:26:11.123Z,97748.28
2023-10-30T01:27:11.142Z,97752.05
2023-10-30T01:28:11.120Z,97749.02
2023-10-30T01:29:11.120Z,97750.27
2023-10-30T01:30:11.145Z,97748.07
2023-10-30T01:31:11.121Z,97753.33
2023-10-30T01:32:11.122Z,97750.98
2023-10-30T01:33:11.230Z,97756.06
2023-10-30T01:34:11.242Z,97760.59
2023-10-30T01:35:11.179Z,97757.64
2023-10-30T01:36:11.125Z,97757.41
2023-10-30T01:37:11.120Z,97757.16
2023-10-30T01:38:11.123Z,97758.38
2023-10-30T01:39:11.136Z,97758.19
2023-10-30T01:40:11.128Z,97758.33
2023-10-30T01:41:11.123Z,97757.46
2023-10-30T01:42:11.156Z,97758.74
2023-10-30T01:43:13.122Z,97757.54
2023-10-30T01:44:11.125Z,97756.54
2023-10-30T01:45:11.172Z,97762.75
2023-10-30T01:46:13.150Z,97759.10
2023-10-30T01:47:11.127Z,97763.73
2023-10-30T01:48:11.223Z,97763.61
2023-10-30T01:49:11.132Z,97760.73
2023-10-30T01:50:11.127Z,97759.84
2023-10-30T01:51:11.215Z,97761.83
2023-10-30T01:52:11.128Z,97761.34
2023-10-30T01:53:11.138Z,97766.72
2023-10-30T01:54:11.162Z,97765.11
2023-10-30T01:55:11.138Z,97766.31
2023-10-30T01:56:11.135Z,97765.04
2023-10-30T01:57:11.145Z,97769.65
2023-10-30T01:58:11.132Z,97771.10
2023-10-30T01:59:11.141Z,97773.67
2023-10-30T02:00:11.181Z,97772.11
2023-10-30T02:01:11.184Z,97772.42
2023-10-30T02:02:11.153Z,97770.16
2023-10-30T02:03:11.298Z,97770.32
2023-10-30T02:04:11.167Z,97766.55
2023-10-30T02:05:11.136Z,97770.25
2023-10-30T02:06:11.170Z,97769.43
2023-10-30T02:07:11.135Z,97765.80
2023-10-30T02:08:11.144Z,97765.83
2023-10-30T02:09:11.152Z,97765.69
2023-10-30T02:10:11.136Z,97767.11
2023-10-30T02:11:11.140Z,97768.61
2023-10-30T02:12:11.164Z,97772.97
2023-10-30T02:13:11.175Z,97772.18
2023-10-30T02:14:11.142Z,97773.16
2023-10-30T02:15:11.165Z,97767.86
2023-10-30T02:16:11.161Z,97774.36
2023-10-30T02:17:11.141Z,97772.78
2023-10-30T02:18:11.177Z,97774.07
2023-10-30T02:19:18.137Z,97774.38
2023-10-30T02:20:11.142Z,97776.56
2023-10-30T02:21:11.167Z,97777.05
2023-10-30T02:22:11.153Z,97779.45
2023-10-30T02:23:11.144Z,97778.30
2023-10-30T02:24:11.174Z,97776.26
2023-10-30T02:25:11.142Z,97777.25
2023-10-30T02:26:11.148Z,97776.05
2023-10-30T02:28:11.155Z,97774.55
2023-10-30T02:29:11.142Z,97775.59
2023-10-30T02:30:11.178Z,97772.46
2023-10-30T02:31:11.158Z,97771.18
2023-10-30T02:32:11.146Z,97769.55
2023-10-30T02:33:11.252Z,97764.02
2023-10-30T02:34:11.241Z,97766.07
2023-10-30T02:35:13.146Z,97764.52
2023-10-30T02:36:11.162Z,97759.86
2023-10-30T02:37:11.153Z,97761.84
2023-10-30T02:38:11.151Z,97759.59
2023-10-30T02:39:11.178Z,97754.79
2023-10-30T02:40:11.157Z,97754.80
2023-10-30T02:41:11.152Z,97755.27
2023-10-30T02:42:11.090Z,97756.23
2023-10-30T02:43:11.067Z,97758.08
2023-10-30T02:44:11.068Z,97762.40
2023-10-30T02:45:11.113Z,97761.27
2023-10-30T02:46:11.076Z,97759.16
2023-10-30T02:47:11.065Z,97761.56
2023-10-30T02:48:11.067Z,97761.02
2023-10-30T02:49:11.067Z,97760.21
2023-10-30T02:50:11.064Z,97757.83
2023-10-30T02:51:11.089Z,97762.36
2023-10-30T02:52:11.071Z,97767.25
2023-10-30T02:53:11.066Z,97763.83
2023-10-30T02:54:11.084Z,97764.81
2023-10-30T02:55:11.079Z,97761.50
2023-10-30T02:56:11.070Z,97759.98
2023-10-30T02:57:11.098Z,97758.58
2023-10-30T02:58:11.078Z,97757.68
2023-10-30T02:59:11.069Z,97758.73
2023-10-30T03:00:11.109Z,97758.32
2023-10-30T03:01:11.079Z,97760.61
2023-10-30T03:02:11.073Z,97761.02
2023-10-30T03:03:11.208Z,97763.42
2023-10-30T03:04:11.227Z,97760.17
2023-10-30T03:05:11.171Z,97756.77
2023-10-30T03:06:11.091Z,97762.25
2023-10-30T03:07:11.084Z,97757.69
2023-10-30T03:08:11.075Z,97756.77
2023-10-30T03:09:11.098Z,97757.70
2023-10-30T03:10:11.080Z,97754.70
2023-10-30T03:11:11.076Z,97752.02
2023-10-30T03:12:11.181Z,97755.20
2023-10-30T03:13:11.078Z,97754.04
2023-10-30T03:14:11.080Z,97756.46
2023-10-30T03:15:11.170Z,97753.14
2023-10-30T03:16:11.222Z,97753.97
2023-10-30T03:17:11.079Z,97753.91
2023-10-30T03:18:11.092Z,97750.73
2023-10-30T03:19:11.107Z,97746.85
2023-10-30T03:20:12.088Z,97746.37
2023-10-30T03:21:11.080Z,97749.51
2023-10-30T03:22:11.088Z,97752.79
2023-10-30T03:23:11.083Z,97748.88
2023-10-30T03:24:11.121Z,97752.43
2023-10-30T03:25:11.090Z,97754.96
2023-10-30T03:26:11.082Z,97754.32
2023-10-30T03:27:11.131Z,97754.75
2023-10-30T03:28:11.096Z,97756.74
2023-10-30T03:29:11.089Z,97759.95
2023-10-30T03:30:11.111Z,97763.62
2023-10-30T03:31:11.104Z,97762.84
2023-10-30T03:32:11.088Z,97757.66
2023-10-30T03:33:11.107Z,97763.69
2023-10-30T03:34:11.128Z,97765.84
2023-10-30T03:35:11.090Z,97763.32
2023-10-30T03:36:11.113Z,97768.20
2023-10-30T03:37:11.089Z,97768.52
2023-10-30T03:38:11.089Z,97773.83
2023-10-30T03:39:11.126Z,97773.77
2023-10-30T03:40:11.127Z,97775.39
2023-10-30T03:41:11.093Z,97776.68
2023-10-30T03:42:11.123Z,97776.00
2023-10-30T03:43:11.094Z,97774.41
2023-10-30T03:44:11.096Z,97776.76
2023-10-30T03:45:12.162Z,97773.72
2023-10-30T03:46:11.122Z,97775.52
2023-10-30T03:47:11.097Z,97774.98
2023-10-30T03:48:11.168Z,97777.84
2023-10-30T03:49:11.094Z,97777.74
2023-10-30T03:50:11.100Z,97774.78
2023-10-30T03:51:11.103Z,97777.07
2023-10-30T03:52:11.098Z,97776.71
2023-10-30T03:53:11.103Z,97777.72
2023-10-30T03:54:11.094Z,97776.80
2023-10-30T03:55:11.106Z,97781.90
2023-10-30T03:56:11.099Z,97778.12
2023-10-30T03:57:11.117Z,97778.59
2023-10-30T03:58:11.106Z,97775.99
2023-10-30T03:59:11.106Z,97775.99
2023-10-30T04:00:12.159Z,97778.46
2023-10-30T04:01:11.138Z,97777.36
2023-10-30T04:02:11.109Z,97780.70
2023-10-30T04:03:13.142Z,97776.68
2023-10-30T04:04:11.210Z,97780.12
2023-10-30T04:05:11.105Z,97780.26
2023-10-30T04:06:11.118Z,97779.61
2023-10-30T04:07:11.111Z,97779.32
2023-10-30T04:08:11.126Z,97781.35
2023-10-30T04:09:11.131Z,97781.84
2023-10-30T04:10:11.111Z,97787.04
2023-10-30T04:11:12.114Z,97784.02
2023-10-30T04:12:11.192Z,97783.32
2023-10-30T04:13:11.113Z,97784.77
2023-10-30T04:14:11.110Z,97780.59
2023-10-30T04:15:11.161Z,97778.44
2023-10-30T04:16:12.213Z,97777.05
2023-10-30T04:17:11.112Z,97775.57
2023-10-30T04:18:11.144Z,97776.08
2023-10-30T04:19:11.113Z,97779.58
2023-10-30T04:20:11.113Z,97783.06
2023-10-30T04:21:11.226Z,97786.28
2023-10-30T04:22:11.148Z,97784.28
2023-10-30T04:23:11.113Z,97782.96
2023-10-30T04:24:11.152Z,97786.02
2023-10-30T04:25:11.127Z,97784.13
2023-10-30T04:26:11.116Z,97786.24
2023-10-30T04:27:11.140Z,97792.34
2023-10-30T04:28:11.124Z,97792.07
2023-10-30T04:29:11.126Z,97795.44
2023-10-30T04:30:11.147Z,97796.88
2023-10-30T04:31:11.115Z,97799.63
2023-10-30T04:32:11.118Z,97806.12
2023-10-30T04:33:11.148Z,97800.52
2023-10-30T04:34:11.119Z,97803.36
2023-10-30T04:35:11.120Z,97798.36
2023-10-30T04:36:11.139Z,97800.98
2023-10-30T04:37:11.119Z,97800.62
2023-10-30T04:38:11.122Z,97797.95
2023-10-30T04:39:13.140Z,97797.09
2023-10-30T04:40:11.128Z,97800.19
2023-10-30T04:41:11.135Z,97800.34
2023-10-30T04:42:11.160Z,97800.33
2023-10-30T04:43:11.126Z,97800.77
2023-10-30T04:44:11.144Z,97806.69
2023-10-30T04:45:11.160Z,97803.64
2023-10-30T04:46:11.150Z,97805.69
2023-10-30T04:47:12.145Z,97805.36
2023-10-30T04:48:11.212Z,97801.75
2023-10-30T04:49:11.131Z,97806.41
2023-10-30T04:50:11.144Z,97807.25
2023-10-30T04:51:11.129Z,97810.07
2023-10-30T04:52:11.124Z,97808.95
2023-10-30T04:53:11.131Z,97809.70
2023-10-30T04:54:14.290Z,97812.28
2023-10-30T04:55:11.133Z,97810.08
2023-10-30T04:56:11.131Z,97811.53
2023-10-30T04:57:11.257Z,97813.79
2023-10-30T04:58:11.129Z,97814.80
2023-10-30T04:59:11.132Z,97817.54
2023-10-30T05:00:12.173Z,97812.53
2023-10-30T05:01:11.133Z,97815.43
2023-10-30T05:02:11.132Z,97817.66
2023-10-30T05:03:11.140Z,97821.08
2023-10-30T05:04:11.171Z,97821.00
2023-10-30T05:05:11.136Z,97819.30
2023-10-30T05:06:11.140Z,97819.23
2023-10-30T05:07:11.172Z,97821.82
2023-10-30T05:08:11.134Z,97823.21
2023-10-30T05:09:11.147Z,97824.18
2023-10-30T05:10:11.134Z,97828.33
2023-10-30T05:11:11.138Z,97830.80
2023-10-30T05:12:11.146Z,97833.10
2023-10-30T05:13:11.146Z,97835.21
2023-10-30T05:14:11.135Z,97836.34
2023-10-30T05:15:11.142Z,97836.34
2023-10-30T05:16:11.176Z,97833.80
2023-10-30T05:17:11.141Z,97833.66
2023-10-30T05:18:11.141Z,97829.16
2023-10-30T05:19:11.141Z,97831.29
2023-10-30T05:20:11.141Z,97829.42
2023-10-30T05:21:11.908Z,97833.09
2023-10-30T05:22:11.144Z,97834.46
2023-10-30T05:23:11.150Z,97835.78
2023-10-30T05:24:11.152Z,97836.26
2023-10-30T05:25:12.144Z,97838.64
2023-10-30T05:26:11.173Z,97841.04
2023-10-30T05:27:11.157Z,97841.94
2023-10-30T05:28:11.232Z,97839.81
2023-10-30T05:29:11.148Z,97846.48
2023-10-30T05:30:11.220Z,97844.77
2023-10-30T05:31:11.206Z,97846.16
2023-10-30T05:32:11.150Z,97849.79
2023-10-30T05:33:11.193Z,97848.20
2023-10-30T05:34:11.152Z,97845.50
2023-10-30T05:35:11.146Z,97851.60
2023-10-30T05:36:11.155Z,97848.89
2023-10-30T05:37:11.149Z,97853.27
2023-10-30T05:38:11.150Z,97848.50
2023-10-30T05:39:11.154Z,97850.29
2023-10-30T05:40:12.749Z,97851.23
2023-10-30T05:41:11.150Z,97854.96
2023-10-30T05:42:11.061Z,97855.10
2023-10-30T05:43:11.066Z,97852.29
2023-10-30T05:44:11.066Z,97852.87
2023-10-30T05:45:11.064Z,97854.33
2023-10-30T05:46:11.117Z,97851.46
2023-10-30T05:47:11.065Z,97851.66
2023-10-30T05:48:11.064Z,97849.72
2023-10-30T05:49:11.072Z,97847.41
2023-10-30T05:50:11.067Z,97851.09
2023-10-30T05:51:11.067Z,97850.05
2023-10-30T05:52:11.069Z,97849.41
2023-10-30T05:53:11.066Z,97848.55
2023-10-30T05:54:11.065Z,97848.55
2023-10-30T05:55:11.075Z,97847.06
2023-10-30T05:56:11.066Z,97846.97
2023-10-30T05:57:12.280Z,97844.43
2023-10-30T05:58:11.081Z,97842.94
2023-10-30T05:59:11.094Z,97841.50
2023-10-30T06:00:11.074Z,97845.69
2023-10-30T06:01:11.074Z,97844.02
2023-10-30T06:02:11.074Z,97848.26
2023-10-30T06:03:11.068Z,97847.07
2023-10-30T06:04:11.133Z,97848.22
2023-10-30T06:05:11.076Z,97851.38
2023-10-30T06:06:11.073Z,97852.87
2023-10-30T06:07:11.082Z,97854.63
2023-10-30T06:08:11.082Z,97853.60
2023-10-30T06:09:11.077Z,97853.49
2023-10-30T06:10:11.085Z,97855.88
2023-10-30T06:11:11.078Z,97859.10
2023-10-30T06:12:11.073Z,97860.18
2023-10-30T06:13:12.088Z,97854.91
2023-10-30T06:14:11.080Z,97859.39
2023-10-30T06:15:11.106Z,97860.79
2023-10-30T06:16:15.158Z,97863.61
2023-10-30T06:17:11.080Z,97862.04
2023-10-30T06:18:11.086Z,97863.22
2023-10-30T06:19:11.083Z,97861.96
2023-10-30T06:20:11.090Z,97864.18
2023-10-30T06:21:16.105Z,97858.77
2023-10-30T06:22:11.082Z,97858.24
2023-10-30T06:23:11.085Z,97858.49
2023-10-30T06:24:11.083Z,97859.90
2023-10-30T06:25:11.124Z,97858.53
2023-10-30T06:26:13.093Z,97859.52
2023-10-30T06:27:11.087Z,97858.79
2023-10-30T06:28:11.085Z,97858.36
2023-10-30T06:29:11.094Z,97858.32
2023-10-30T06:30:12.087Z,97862.52
2023-10-30T06:31:15.095Z,97861.08
2023-10-30T06:32:11.151Z,97864.54
2023-10-30T06:33:11.164Z,97869.02
2023-10-30T06:34:11.089Z,97874.90
2023-10-30T06:35:11.110Z,97879.69
2023-10-30T06:36:11.093Z,97876.33
2023-10-30T06:37:11.274Z,97877.58
2023-10-30T06:38:11.091Z,97876.08
2023-10-30T06:39:11.086Z,97875.26
2023-10-30T06:40:11.100Z,97876.91
2023-10-30T06:41:11.103Z,97877.27
2023-10-30T06:42:11.091Z,97875.99
2023-10-30T06:43:11.094Z,97874.51
2023-10-30T06:44:11.099Z,97874.67
2023-10-30T06:45:11.092Z,97876.99
2023-10-30T06:46:11.172Z,97881.68
2023-10-30T06:47:11.102Z,97881.27
2023-10-30T06:48:11.095Z,97884.81
2023-10-30T06:49:11.097Z,97887.26
2023-10-30T06:50:11.104Z,97890.27
2023-10-30T06:51:11.094Z,97889.55
2023-10-30T06:52:11.103Z,97891.68
2023-10-30T06:53:11.106Z,97891.96
2023-10-30T06:54:13.101Z,97896.34
2023-10-30T06:55:11.110Z,97899.61
2023-10-30T06:56:11.100Z,97902.15
2023-10-30T06:57:11.100Z,97901.85
2023-10-30T06:58:11.102Z,97905.49
2023-10-30T06:59:11.104Z,97908.25
2023-10-30T07:00:11.100Z,97908.94
2023-10-30T07:01:11.177Z,97912.38
2023-10-30T07:02:11.102Z,97909.09
2023-10-30T07:03:11.200Z,97911.55
2023-10-30T07:04:11.185Z,97912.66
2023-10-30T07:05:11.110Z,97919.17
2023-10-30T07:06:11.109Z,97916.66
2023-10-30T07:07:11.104Z,97921.73
2023-10-30T07:08:11.116Z,97922.95
2023-10-30T07:09:11.105Z,97926.64
2023-10-30T07:10:11.115Z,97926.70
2023-10-30T07:11:11.107Z,97927.13
2023-10-30T07:12:11.116Z,97927.68
2023-10-30T07:13:11.107Z,97928.87
2023-10-30T07:14:11.105Z,97932.37
2023-10-30T07:15:11.116Z,97931.71
2023-10-30T07:16:11.133Z,97932.92
2023-10-30T07:17:11.157Z,97932.04
2023-10-30T07:18:11.176Z,97934.64
2023-10-30T07:19:11.108Z,97935.62
2023-10-30T07:20:11.108Z,97938.26
2023-10-30T07:21:11.112Z,97936.97
2023-10-30T07:22:11.108Z,97941.57
2023-10-30T07:23:11.120Z,97940.21
2023-10-30T07:24:11.109Z,97946.36
2023-10-30T07:25:11.126Z,97946.48
2023-10-30T07:26:11.117Z,97944.82
2023-10-30T07:27:11.113Z,97951.27
2023-10-30T07:28:11.142Z,97951.85
2023-10-30T07:29:11.119Z,97951.56
2023-10-30T07:30:11.120Z,97949.93
2023-10-30T07:31:11.217Z,97948.83
2023-10-30T07:32:11.114Z,97950.30
2023-10-30T07:33:11.157Z,97953.38
2023-10-30T07:34:11.113Z,97947.53
2023-10-30T07:35:11.120Z,97950.36
2023-10-30T07:36:11.117Z,97954.66
2023-10-30T07:37:11.154Z,97952.91
2023-10-30T07:38:11.119Z,97957.62
2023-10-30T07:39:12.316Z,97960.37
2023-10-30T07:40:11.136Z,97959.31
2023-10-30T07:41:11.129Z,97959.98
2023-10-30T07:42:11.149Z,97963.45
2023-10-30T07:43:11.119Z,97962.13
2023-10-30T07:44:11.129Z,97968.48
2023-10-30T07:45:11.205Z,97968.41
2023-10-30T07:46:12.236Z,97972.27
2023-10-30T07:47:12.657Z,97969.90
2023-10-30T07:48:11.168Z,97972.00
2023-10-30T07:49:11.198Z,97970.96
2023-10-30T07:50:11.130Z,97974.46
2023-10-30T07:51:11.135Z,97973.61
2023-10-30T07:52:11.125Z,97976.39
2023-10-30T07:53:11.128Z,97971.90
2023-10-30T07:54:11.128Z,97973.60
2023-10-30T07:55:11.127Z,97975.73
2023-10-30T07:56:11.127Z,97972.70
2023-10-30T07:57:11.140Z,97978.72
2023-10-30T07:58:12.128Z,97982.32
2023-10-30T07:59:11.131Z,97986.07
2023-10-30T08:00:11.131Z,97986.39
2023-10-30T08:01:11.175Z,97989.02
2023-10-30T08:02:11.139Z,97986.10
2023-10-30T08:03:11.171Z,97987.21
2023-10-30T08:04:11.232Z,97989.22
2023-10-30T08:05:11.132Z,97992.20
2023-10-30T08:06:11.131Z,97990.44
2023-10-30T08:07:11.153Z,97990.87
2023-10-30T08:08:12.219Z,97993.44
2023-10-30T08:09:11.137Z,97997.73
2023-10-30T08:10:11.143Z,97998.10
2023-10-30T08:11:11.144Z,97998.98
2023-10-30T08:12:11.133Z,98000.83
2023-10-30T08:13:11.143Z,98000.87
2023-10-30T08:14:11.138Z,98005.64
2023-10-30T08:15:11.133Z,98003.77
2023-10-30T08:16:11.179Z,98008.68
2023-10-30T08:17:11.139Z,98007.15
2023-10-30T08:18:11.138Z,98004.09
2023-10-30T08:19:11.140Z,98008.20
2023-10-30T08:20:11.164Z,98007.12
2023-10-30T08:21:11.143Z,98009.25
2023-10-30T08:22:11.143Z,98007.42
2023-10-30T08:23:11.149Z,98008.88
2023-10-30T08:24:11.142Z,98009.10
2023-10-30T08:25:11.144Z,98013.94
2023-10-30T08:26:11.145Z,98014.51
2023-10-30T08:27:11.150Z,98014.52
2023-10-30T08:28:11.144Z,98019.02
2023-10-30T08:29:11.148Z,98017.14
2023-10-30T08:30:11.145Z,98018.90
2023-10-30T08:31:11.286Z,98019.91
2023-10-30T08:32:11.159Z,98022.64
2023-10-30T08:33:11.215Z,98023.52
2023-10-30T08:34:11.153Z,98024.70
2023-10-30T08:35:11.152Z,98023.23
2023-10-30T08:36:11.146Z,98025.37
2023-10-30T08:37:11.155Z,98021.99
2023-10-30T08:38:11.158Z,98021.88
2023-10-30T08:39:11.150Z,98022.29
2023-10-30T08:40:11.158Z,98020.28
2023-10-30T08:41:15.154Z,98022.13
2023-10-30T08:42:11.071Z,98021.03
2023-10-30T08:43:11.065Z,98018.47
2023-10-30T08:44:11.070Z,98023.05
2023-10-30T08:45:11.067Z,98018.48
2023-10-30T08:46:11.121Z,98014.12
2023-10-30T08:47:11.070Z,98015.70
2023-10-30T08:48:18.552Z,98016.43
2023-10-30T08:49:13.137Z,98012.56
2023-10-30T08:50:11.074Z,98015.69
2023-10-30T08:51:11.070Z,98015.64
2023-10-30T08:52:11.096Z,98016.31
2023-10-30T08:53:11.154Z,98019.04
2023-10-30T08:54:11.074Z,98012.43
2023-10-30T08:55:11.071Z,98014.63
2023-10-30T08:56:11.083Z,98017.28
2023-10-30T08:57:17.137Z,98020.70
2023-10-30T08:58:13.079Z,98022.84
2023-10-30T08:59:11.078Z,98023.12
2023-10-30T09:00:13.086Z,98023.87
2023-10-30T09:01:11.080Z,98025.48
2023-10-30T09:02:11.071Z,98028.54
2023-10-30T09:03:11.143Z,98023.05
2023-10-30T09:04:11.256Z,98024.59
2023-10-30T09:05:11.269Z,98026.05
2023-10-30T09:06:11.307Z,98028.46
2023-10-30T09:07:11.101Z,98031.48
2023-10-30T09:08:11.073Z,98027.89
2023-10-30T09:09:11.095Z,98027.02
2023-10-30T09:10:11.079Z,98021.90
2023-10-30T09:11:11.074Z,98021.95
2023-10-30T09:12:11.082Z,98021.75
2023-10-30T09:13:11.079Z,98019.96
2023-10-30T09:14:11.086Z,98021.75
2023-10-30T09:15:11.084Z,98022.19
2023-10-30T09:16:11.164Z,98023.22
2023-10-30T09:17:13.077Z,98020.01
2023-10-30T09:18:11.086Z,98021.13
2023-10-30T09:19:11.090Z,98024.41
2023-10-30T09:20:11.089Z,98025.08
2023-10-30T09:21:11.094Z,98022.19
2023-10-30T09:22:11.084Z,98023.05
2023-10-30T09:23:11.083Z,98024.38
2023-10-30T09:24:11.082Z,98029.48
2023-10-30T09:25:11.174Z,98024.60
2023-10-30T09:26:11.094Z,98022.54
2023-10-30T09:27:11.106Z,98024.79
2023-10-30T09:28:11.159Z,98024.98
2023-10-30T09:29:11.081Z,98023.80
2023-10-30T09:30:11.086Z,98023.43
2023-10-30T09:31:11.117Z,98022.63
2023-10-30T09:32:11.085Z,98021.81
2023-10-30T09:33:11.131Z,98023.56
2023-10-30T09:34:11.096Z,98024.26
2023-10-30T09:35:11.088Z,98021.85
2023-10-30T09:36:11.090Z,98030.57
2023-10-30T09:37:11.096Z,98031.43
2023-10-30T09:38:11.087Z,98035.57
2023-10-30T09:39:11.106Z,98037.65
2023-10-30T09:40:11.101Z,98038.25
2023-10-30T09:41:12.103Z,98034.36
2023-10-30T09:42:11.092Z,98038.66
2023-10-30T09:43:15.788Z,98035.10
2023-10-30T09:44:11.113Z,98039.85
2023-10-30T09:45:11.089Z,98042.11
2023-10-30T09:46:11.187Z,98035.06
2023-10-30T09:47:11.097Z,98036.98
2023-10-30T09:48:11.106Z,98037.48
2023-10-30T09:49:11.104Z,98037.38
2023-10-30T09:50:11.107Z,98035.42
2023-10-30T09:51:11.098Z,98035.34
2023-10-30T09:52:11.098Z,98037.20
2023-10-30T09:53:11.107Z,98029.80
2023-10-30T09:54:11.096Z,98032.05
2023-10-30T09:55:13.162Z,98033.88
2023-10-30T09:56:11.101Z,98038.18
2023-10-30T09:57:11.098Z,98041.21
2023-10-30T09:58:11.123Z,98035.66
2023-10-30T09:59:11.102Z,98040.64
2023-10-30T10:00:11.131Z,98041.26
2023-10-30T10:01:11.283Z,98040.10
2023-10-30T10:02:11.205Z,98035.57
2023-10-30T10:03:12.158Z,98041.52
2023-10-30T10:04:11.284Z,98042.14
2023-10-30T10:05:11.129Z,98043.84
2023-10-30T10:06:11.106Z,98046.13
2023-10-30T10:07:11.131Z,98045.59
2023-10-30T10:08:11.192Z,98047.99
2023-10-30T10:09:11.144Z,98049.09
2023-10-30T10:10:11.167Z,98049.97
2023-10-30T10:11:12.180Z,98045.69
2023-10-30T10:12:19.126Z,98048.50
2023-10-30T10:13:11.214Z,98050.66
2023-10-30T10:14:11.340Z,98051.22
2023-10-30T10:15:13.108Z,98053.00
2023-10-30T10:16:11.244Z,98045.35
2023-10-30T10:17:11.123Z,98050.10
2023-10-30T10:18:19.115Z,98049.62
2023-10-30T10:19:19.120Z,98052.26
2023-10-30T10:20:11.113Z,98052.43
2023-10-30T10:21:11.114Z,98049.95
2023-10-30T10:22:11.110Z,98054.27
2023-10-30T10:23:19.118Z,98055.32
2023-10-30T10:24:11.192Z,98054.22
2023-10-30T10:25:11.114Z,98057.07
2023-10-30T10:26:11.122Z,98057.34
2023-10-30T10:27:11.125Z,98059.75
2023-10-30T10:28:12.382Z,98056.32
2023-10-30T10:29:11.121Z,98057.57
2023-10-30T10:30:11.134Z,98058.98
2023-10-30T10:31:11.122Z,98057.17
2023-10-30T10:32:11.128Z,98055.91
2023-10-30T10:33:11.216Z,98059.25
2023-10-30T10:34:11.168Z,98058.81
2023-10-30T10:35:11.124Z,98062.11
2023-10-30T10:36:11.172Z,98063.79
2023-10-30T10:37:16.123Z,98062.83
2023-10-30T10:38:11.121Z,98060.66
2023-10-30T10:39:11.128Z,98064.15
2023-10-30T10:40:15.126Z,98063.80
2023-10-30T10:41:11.129Z,98067.59
2023-10-30T10:42:11.126Z,98066.52
2023-10-30T10:43:11.129Z,98065.92
2023-10-30T10:44:11.131Z,98067.91
2023-10-30T10:45:11.129Z,98066.18
2023-10-30T10:46:11.183Z,98064.71
2023-10-30T10:47:11.132Z,98061.44
2023-10-30T10:48:11.177Z,98063.33
2023-10-30T10:49:11.134Z,98063.34
2023-10-30T10:50:11.150Z,98064.27
2023-10-30T10:51:11.141Z,98062.52
2023-10-30T10:52:14.132Z,98061.13
2023-10-30T10:53:12.139Z,98059.82
2023-10-30T10:54:20.132Z,98063.22
2023-10-30T10:55:11.146Z,98059.52
2023-10-30T10:56:11.135Z,98062.03
2023-10-30T10:57:15.137Z,98059.68
2023-10-30T10:58:19.143Z,98063.57
2023-10-30T10:59:14.150Z,98058.14
2023-10-30T11:00:13.157Z,98059.60
2023-10-30T11:01:15.161Z,98059.47
2023-10-30T11:02:12.146Z,98059.47
2023-10-30T11:03:11.138Z,98062.41
2023-10-30T11:04:11.200Z,98059.61
2023-10-30T11:05:11.146Z,98062.74
2023-10-30T11:06:11.140Z,98062.18
2023-10-30T11:07:13.150Z,98062.43
2023-10-30T11:08:21.143Z,98064.07
2023-10-30T11:09:17.145Z,98064.34
2023-10-30T11:10:21.244Z,98064.23
2023-10-30T11:11:19.143Z,98059.19
2023-10-30T11:12:21.155Z,98056.82
2023-10-30T11:13:16.143Z,98056.42
2023-10-30T11:14:19.145Z,98061.90
2023-10-30T11:15:17.149Z,98062.04
2023-10-30T11:16:19.256Z,98064.00
2023-10-30T11:17:11.147Z,98059.36
2023-10-30T11:18:19.153Z,98059.83
2023-10-30T11:19:11.144Z,98060.29
2023-10-30T11:20:11.225Z,98057.45
2023-10-30T11:21:11.161Z,98059.68
2023-10-30T11:22:11.165Z,98057.04
2023-10-30T11:23:11.165Z,98051.45
2023-10-30T11:24:11.154Z,98051.66
2023-10-30T11:25:19.199Z,98051.39
2023-10-30T11:26:11.163Z,98049.57
2023-10-30T11:27:19.153Z,98047.98
2023-10-30T11:28:11.151Z,98047.53
2023-10-30T11:29:17.158Z,98048.94
2023-10-30T11:30:11.155Z,98048.18
2023-10-30T11:31:11.156Z,98044.97
2023-10-30T11:32:12.160Z,98046.76
2023-10-30T11:33:17.157Z,98048.14
2023-10-30T11:34:15.170Z,98045.05
2023-10-30T11:35:11.323Z,98045.25
2023-10-30T11:36:21.161Z,98044.52
2023-10-30T11:37:11.171Z,98045.35
2023-10-30T11:38:11.166Z,98043.79
2023-10-30T11:39:13.159Z,98041.93
2023-10-30T11:40:11.160Z,98041.26
2023-10-30T11:41:11.165Z,98041.57
2023-10-30T11:42:19.063Z,98041.91
2023-10-30T11:43:11.120Z,98041.18
2023-10-30T11:44:12.102Z,98040.06
2023-10-30T11:45:19.612Z,98040.56